sensor_id;sensor_type;location;lat;lon;timestamp;P1;durP1;ratioP1;P2;durP2;ratioP2
13238;SDS011;6686;51.292;4.166;2023-01-29T00:02:26;35.10;;;23.03;;
13238;SDS011;6686;51.292;4.166;2023-01-29T00:05:12;33.53;;;21.77;;
13238;SDS011;6686;51.292;4.166;2023-01-29T00:07:58;35.83;;;23.37;;
13238;SDS011;6686;51.292;4.166;2023-01-29T00:10:44;31.10;;;21.97;;
13238;SDS011;6686;51.292;4.166;2023-01-29T00:13:30;36.93;;;23.67;;
13238;SDS011;6686;51.292;4.166;2023-01-29T00:16:16;29.73;;;21.33;;
13238;SDS011;6686;51.292;4.166;2023-01-29T00:19:02;35.70;;;22.53;;
13238;SDS011;6686;51.292;4.166;2023-01-29T00:21:48;33.13;;;20.80;;
13238;SDS011;6686;51.292;4.166;2023-01-29T00:24:34;31.03;;;22.03;;
13238;SDS011;6686;51.292;4.166;2023-01-29T00:27:20;32.17;;;21.33;;
13238;SDS011;6686;51.292;4.166;2023-01-29T00:30:06;31.93;;;21.23;;
13238;SDS011;6686;51.292;4.166;2023-01-29T00:32:58;32.60;;;21.77;;
13238;SDS011;6686;51.292;4.166;2023-01-29T00:35:44;32.10;;;20.73;;
13238;SDS011;6686;51.292;4.166;2023-01-29T00:38:30;33.33;;;20.93;;
13238;SDS011;6686;51.292;4.166;2023-01-29T00:41:16;32.60;;;21.23;;
13238;SDS011;6686;51.292;4.166;2023-01-29T00:44:20;34.60;;;25.60;;
13238;SDS011;6686;51.292;4.166;2023-01-29T00:47:25;30.47;;;21.10;;
13238;SDS011;6686;51.292;4.166;2023-01-29T00:50:16;30.30;;;20.00;;
13238;SDS011;6686;51.292;4.166;2023-01-29T00:53:02;27.70;;;19.97;;
13238;SDS011;6686;51.292;4.166;2023-01-29T00:55:48;30.52;;;23.27;;
13238;SDS011;6686;51.292;4.166;2023-01-29T00:58:34;29.03;;;21.23;;
13238;SDS011;6686;51.292;4.166;2023-01-29T01:01:19;32.77;;;22.40;;
13238;SDS011;6686;51.292;4.166;2023-01-29T01:04:05;35.75;;;26.27;;
13238;SDS011;6686;51.292;4.166;2023-01-29T01:06:51;33.00;;;21.43;;
13238;SDS011;6686;51.292;4.166;2023-01-29T01:09:37;27.87;;;20.73;;
13238;SDS011;6686;51.292;4.166;2023-01-29T01:12:41;31.10;;;20.40;;
13238;SDS011;6686;51.292;4.166;2023-01-29T01:15:28;31.00;;;20.90;;
13238;SDS011;6686;51.292;4.166;2023-01-29T01:18:13;34.57;;;22.23;;
13238;SDS011;6686;51.292;4.166;2023-01-29T01:20:59;35.00;;;26.60;;
13238;SDS011;6686;51.292;4.166;2023-01-29T01:23:45;33.30;;;22.70;;
13238;SDS011;6686;51.292;4.166;2023-01-29T01:26:31;31.47;;;21.77;;
13238;SDS011;6686;51.292;4.166;2023-01-29T01:29:17;32.90;;;22.23;;
13238;SDS011;6686;51.292;4.166;2023-01-29T01:32:03;30.30;;;21.67;;
13238;SDS011;6686;51.292;4.166;2023-01-29T01:34:50;30.80;;;22.63;;
13238;SDS011;6686;51.292;4.166;2023-01-29T01:37:34;30.73;;;21.67;;
13238;SDS011;6686;51.292;4.166;2023-01-29T01:40:23;29.60;;;21.07;;
13238;SDS011;6686;51.292;4.166;2023-01-29T01:43:09;27.90;;;20.60;;
13238;SDS011;6686;51.292;4.166;2023-01-29T01:45:55;30.00;;;20.60;;
13238;SDS011;6686;51.292;4.166;2023-01-29T01:48:41;29.57;;;21.60;;
13238;SDS011;6686;51.292;4.166;2023-01-29T01:51:27;30.07;;;22.30;;
13238;SDS011;6686;51.292;4.166;2023-01-29T01:54:15;28.80;;;22.13;;
13238;SDS011;6686;51.292;4.166;2023-01-29T01:57:06;32.33;;;26.83;;
13238;SDS011;6686;51.292;4.166;2023-01-29T01:59:55;33.73;;;23.80;;
13238;SDS011;6686;51.292;4.166;2023-01-29T02:02:40;30.60;;;23.43;;
13238;SDS011;6686;51.292;4.166;2023-01-29T02:05:43;30.57;;;21.90;;
13238;SDS011;6686;51.292;4.166;2023-01-29T02:08:51;31.30;;;22.53;;
13238;SDS011;6686;51.292;4.166;2023-01-29T02:11:55;31.03;;;21.67;;
13238;SDS011;6686;51.292;4.166;2023-01-29T02:14:41;30.93;;;21.97;;
13238;SDS011;6686;51.292;4.166;2023-01-29T02:17:26;27.33;;;20.90;;
13238;SDS011;6686;51.292;4.166;2023-01-29T02:23:20;28.37;;;21.97;;
13238;SDS011;6686;51.292;4.166;2023-01-29T02:41:25;32.63;;;22.33;;
13238;SDS011;6686;51.292;4.166;2023-01-29T02:56:06;28.47;;;20.53;;
13238;SDS011;6686;51.292;4.166;2023-01-29T02:58:52;31.90;;;22.43;;
13238;SDS011;6686;51.292;4.166;2023-01-29T03:01:39;30.40;;;20.70;;
13238;SDS011;6686;51.292;4.166;2023-01-29T03:04:25;31.77;;;22.13;;
13238;SDS011;6686;51.292;4.166;2023-01-29T03:07:11;31.43;;;22.00;;
13238;SDS011;6686;51.292;4.166;2023-01-29T03:09:56;31.67;;;21.13;;
13238;SDS011;6686;51.292;4.166;2023-01-29T03:12:41;30.80;;;21.33;;
13238;SDS011;6686;51.292;4.166;2023-01-29T03:15:28;29.27;;;20.53;;
13238;SDS011;6686;51.292;4.166;2023-01-29T03:18:14;31.73;;;21.37;;
13238;SDS011;6686;51.292;4.166;2023-01-29T03:21:01;30.67;;;21.63;;
13238;SDS011;6686;51.292;4.166;2023-01-29T03:23:45;29.30;;;21.70;;
13238;SDS011;6686;51.292;4.166;2023-01-29T03:26:49;30.00;;;21.47;;
13238;SDS011;6686;51.292;4.166;2023-01-29T03:29:54;28.03;;;21.43;;
13238;SDS011;6686;51.292;4.166;2023-01-29T03:32:58;29.33;;;20.90;;
13238;SDS011;6686;51.292;4.166;2023-01-29T03:35:45;32.30;;;21.87;;
13238;SDS011;6686;51.292;4.166;2023-01-29T03:38:29;32.33;;;26.65;;
13238;SDS011;6686;51.292;4.166;2023-01-29T03:41:19;30.60;;;22.27;;
13238;SDS011;6686;51.292;4.166;2023-01-29T03:44:13;29.57;;;21.73;;
13238;SDS011;6686;51.292;4.166;2023-01-29T03:50:04;32.88;;;26.23;;
13238;SDS011;6686;51.292;4.166;2023-01-29T03:52:49;31.10;;;22.03;;
13238;SDS011;6686;51.292;4.166;2023-01-29T03:55:43;27.13;;;20.30;;
13238;SDS011;6686;51.292;4.166;2023-01-29T04:02:01;34.05;;;26.67;;
13238;SDS011;6686;51.292;4.166;2023-01-29T04:04:31;28.87;;;21.67;;
13238;SDS011;6686;51.292;4.166;2023-01-29T04:07:19;31.00;;;21.97;;
13238;SDS011;6686;51.292;4.166;2023-01-29T04:10:18;31.10;;;21.53;;
13238;SDS011;6686;51.292;4.166;2023-01-29T04:13:03;31.17;;;21.80;;
13238;SDS011;6686;51.292;4.166;2023-01-29T04:15:57;30.60;;;21.10;;
13238;SDS011;6686;51.292;4.166;2023-01-29T04:18:44;32.23;;;21.63;;
13238;SDS011;6686;51.292;4.166;2023-01-29T04:21:29;30.37;;;21.83;;
13238;SDS011;6686;51.292;4.166;2023-01-29T04:24:15;29.73;;;21.90;;
13238;SDS011;6686;51.292;4.166;2023-01-29T04:39:10;30.57;;;21.03;;
13238;SDS011;6686;51.292;4.166;2023-01-29T04:44:58;30.57;;;21.50;;
13238;SDS011;6686;51.292;4.166;2023-01-29T04:51:33;29.90;;;21.77;;
13238;SDS011;6686;51.292;4.166;2023-01-29T04:56:34;33.50;;;26.90;;
13238;SDS011;6686;51.292;4.166;2023-01-29T05:00:22;32.60;;;22.67;;
13238;SDS011;6686;51.292;4.166;2023-01-29T05:02:13;29.30;;;21.73;;
13238;SDS011;6686;51.292;4.166;2023-01-29T05:04:59;27.07;;;20.17;;
13238;SDS011;6686;51.292;4.166;2023-01-29T05:07:45;30.40;;;21.13;;
13238;SDS011;6686;51.292;4.166;2023-01-29T05:10:31;32.95;;;26.25;;
13238;SDS011;6686;51.292;4.166;2023-01-29T05:13:18;31.97;;;22.83;;
13238;SDS011;6686;51.292;4.166;2023-01-29T05:19:04;32.53;;;21.47;;
13238;SDS011;6686;51.292;4.166;2023-01-29T05:21:50;35.27;;;22.13;;
13238;SDS011;6686;51.292;4.166;2023-01-29T05:24:36;29.10;;;20.60;;
13238;SDS011;6686;51.292;4.166;2023-01-29T05:27:23;33.00;;;25.60;;
13238;SDS011;6686;51.292;4.166;2023-01-29T05:30:25;34.17;;;24.20;;
13238;SDS011;6686;51.292;4.166;2023-01-29T05:36:03;30.33;;;21.40;;
13238;SDS011;6686;51.292;4.166;2023-01-29T05:38:49;32.10;;;21.57;;
13238;SDS011;6686;51.292;4.166;2023-01-29T05:41:35;33.77;;;21.43;;
13238;SDS011;6686;51.292;4.166;2023-01-29T05:44:21;29.57;;;21.30;;
13238;SDS011;6686;51.292;4.166;2023-01-29T05:47:07;33.25;;;25.30;;
13238;SDS011;6686;51.292;4.166;2023-01-29T05:49:53;31.17;;;22.27;;
13238;SDS011;6686;51.292;4.166;2023-01-29T05:52:39;31.07;;;22.00;;
13238;SDS011;6686;51.292;4.166;2023-01-29T05:55:26;35.53;;;25.90;;
13238;SDS011;6686;51.292;4.166;2023-01-29T05:58:11;29.57;;;21.80;;
13238;SDS011;6686;51.292;4.166;2023-01-29T06:00:56;33.50;;;21.53;;
13238;SDS011;6686;51.292;4.166;2023-01-29T06:03:42;32.20;;;21.57;;
13238;SDS011;6686;51.292;4.166;2023-01-29T06:06:28;33.45;;;25.70;;
13238;SDS011;6686;51.292;4.166;2023-01-29T06:09:15;32.17;;;22.00;;
13238;SDS011;6686;51.292;4.166;2023-01-29T06:12:01;29.77;;;20.63;;
13238;SDS011;6686;51.292;4.166;2023-01-29T06:14:47;35.90;;;25.65;;
13238;SDS011;6686;51.292;4.166;2023-01-29T06:17:33;30.63;;;21.53;;
13238;SDS011;6686;51.292;4.166;2023-01-29T06:20:19;29.00;;;19.43;;
13238;SDS011;6686;51.292;4.166;2023-01-29T06:23:05;30.63;;;21.13;;
13238;SDS011;6686;51.292;4.166;2023-01-29T06:25:51;28.33;;;20.37;;
13238;SDS011;6686;51.292;4.166;2023-01-29T06:28:37;30.87;;;20.47;;
13238;SDS011;6686;51.292;4.166;2023-01-29T06:31:22;31.07;;;19.67;;
13238;SDS011;6686;51.292;4.166;2023-01-29T06:34:08;31.25;;;22.77;;
13238;SDS011;6686;51.292;4.166;2023-01-29T06:36:54;29.50;;;21.17;;
13238;SDS011;6686;51.292;4.166;2023-01-29T06:39:40;29.83;;;20.33;;
13238;SDS011;6686;51.292;4.166;2023-01-29T06:42:26;28.83;;;18.43;;
13238;SDS011;6686;51.292;4.166;2023-01-29T06:45:12;26.53;;;18.60;;
13238;SDS011;6686;51.292;4.166;2023-01-29T06:47:58;31.08;;;22.48;;
13238;SDS011;6686;51.292;4.166;2023-01-29T06:50:44;28.40;;;20.13;;
13238;SDS011;6686;51.292;4.166;2023-01-29T06:53:30;31.00;;;20.50;;
13238;SDS011;6686;51.292;4.166;2023-01-29T06:56:16;29.70;;;20.13;;
13238;SDS011;6686;51.292;4.166;2023-01-29T06:59:02;32.03;;;20.43;;
13238;SDS011;6686;51.292;4.166;2023-01-29T07:01:47;32.63;;;21.07;;
13238;SDS011;6686;51.292;4.166;2023-01-29T07:04:33;30.47;;;19.97;;
13238;SDS011;6686;51.292;4.166;2023-01-29T07:07:20;28.07;;;19.10;;
13238;SDS011;6686;51.292;4.166;2023-01-29T07:10:05;30.60;;;19.00;;
13238;SDS011;6686;51.292;4.166;2023-01-29T07:12:52;30.37;;;18.93;;
13238;SDS011;6686;51.292;4.166;2023-01-29T07:15:37;32.67;;;19.93;;
13238;SDS011;6686;51.292;4.166;2023-01-29T07:18:23;30.63;;;20.20;;
13238;SDS011;6686;51.292;4.166;2023-01-29T07:21:09;30.57;;;20.17;;
13238;SDS011;6686;51.292;4.166;2023-01-29T07:23:55;31.93;;;18.83;;
13238;SDS011;6686;51.292;4.166;2023-01-29T07:26:41;29.90;;;20.70;;
13238;SDS011;6686;51.292;4.166;2023-01-29T07:29:27;34.28;;;24.83;;
13238;SDS011;6686;51.292;4.166;2023-01-29T07:32:13;33.17;;;21.50;;
13238;SDS011;6686;51.292;4.166;2023-01-29T07:34:59;31.27;;;19.93;;
13238;SDS011;6686;51.292;4.166;2023-01-29T07:37:47;26.23;;;19.17;;
13238;SDS011;6686;51.292;4.166;2023-01-29T07:40:31;29.90;;;19.90;;
13238;SDS011;6686;51.292;4.166;2023-01-29T07:43:16;27.17;;;18.97;;
13238;SDS011;6686;51.292;4.166;2023-01-29T07:46:03;33.53;;;19.37;;
13238;SDS011;6686;51.292;4.166;2023-01-29T07:48:48;33.30;;;19.93;;
13238;SDS011;6686;51.292;4.166;2023-01-29T07:51:34;27.93;;;18.50;;
13238;SDS011;6686;51.292;4.166;2023-01-29T07:54:20;30.73;;;19.17;;
13238;SDS011;6686;51.292;4.166;2023-01-29T07:57:06;32.00;;;23.70;;
13238;SDS011;6686;51.292;4.166;2023-01-29T07:59:52;29.57;;;20.23;;
13238;SDS011;6686;51.292;4.166;2023-01-29T08:02:38;30.77;;;20.10;;
13238;SDS011;6686;51.292;4.166;2023-01-29T08:05:24;41.92;;;29.35;;
13238;SDS011;6686;51.292;4.166;2023-01-29T08:08:10;32.43;;;21.23;;
13238;SDS011;6686;51.292;4.166;2023-01-29T08:10:55;31.47;;;19.90;;
13238;SDS011;6686;51.292;4.166;2023-01-29T08:13:42;32.83;;;19.07;;
13238;SDS011;6686;51.292;4.166;2023-01-29T08:16:28;32.10;;;20.07;;
13238;SDS011;6686;51.292;4.166;2023-01-29T08:19:14;29.30;;;17.83;;
13238;SDS011;6686;51.292;4.166;2023-01-29T08:22:00;28.40;;;17.60;;
13238;SDS011;6686;51.292;4.166;2023-01-29T08:24:46;28.77;;;19.07;;
13238;SDS011;6686;51.292;4.166;2023-01-29T08:27:32;31.40;;;20.20;;
13238;SDS011;6686;51.292;4.166;2023-01-29T08:30:18;32.10;;;19.50;;
13238;SDS011;6686;51.292;4.166;2023-01-29T08:33:04;32.17;;;19.07;;
13238;SDS011;6686;51.292;4.166;2023-01-29T08:35:50;31.03;;;19.03;;
13238;SDS011;6686;51.292;4.166;2023-01-29T08:38:35;28.47;;;17.83;;
13238;SDS011;6686;51.292;4.166;2023-01-29T08:41:21;26.40;;;19.00;;
13238;SDS011;6686;51.292;4.166;2023-01-29T08:44:07;27.93;;;19.17;;
13238;SDS011;6686;51.292;4.166;2023-01-29T08:46:53;27.80;;;18.70;;
13238;SDS011;6686;51.292;4.166;2023-01-29T08:49:38;26.53;;;18.37;;
13238;SDS011;6686;51.292;4.166;2023-01-29T08:52:25;25.00;;;17.30;;
13238;SDS011;6686;51.292;4.166;2023-01-29T08:55:11;29.67;;;18.07;;
13238;SDS011;6686;51.292;4.166;2023-01-29T08:57:56;30.33;;;21.80;;
13238;SDS011;6686;51.292;4.166;2023-01-29T09:00:42;26.63;;;18.20;;
13238;SDS011;6686;51.292;4.166;2023-01-29T09:03:28;31.53;;;19.83;;
13238;SDS011;6686;51.292;4.166;2023-01-29T09:06:14;27.67;;;18.43;;
13238;SDS011;6686;51.292;4.166;2023-01-29T09:08:59;28.70;;;18.83;;
13238;SDS011;6686;51.292;4.166;2023-01-29T09:11:45;28.43;;;17.57;;
13238;SDS011;6686;51.292;4.166;2023-01-29T09:14:31;32.50;;;22.77;;
13238;SDS011;6686;51.292;4.166;2023-01-29T09:17:17;35.80;;;23.58;;
13238;SDS011;6686;51.292;4.166;2023-01-29T09:20:03;25.80;;;18.40;;
13238;SDS011;6686;51.292;4.166;2023-01-29T09:22:52;27.47;;;17.83;;
13238;SDS011;6686;51.292;4.166;2023-01-29T09:25:38;31.47;;;19.73;;
13238;SDS011;6686;51.292;4.166;2023-01-29T09:28:24;31.67;;;19.00;;
13238;SDS011;6686;51.292;4.166;2023-01-29T09:31:09;26.67;;;18.07;;
13238;SDS011;6686;51.292;4.166;2023-01-29T09:33:55;28.40;;;18.77;;
13238;SDS011;6686;51.292;4.166;2023-01-29T09:36:41;28.73;;;19.23;;
13238;SDS011;6686;51.292;4.166;2023-01-29T09:39:27;28.53;;;18.07;;
13238;SDS011;6686;51.292;4.166;2023-01-29T09:42:30;24.80;;;17.40;;
13238;SDS011;6686;51.292;4.166;2023-01-29T09:45:15;27.07;;;17.87;;
13238;SDS011;6686;51.292;4.166;2023-01-29T09:48:01;27.03;;;17.73;;
13238;SDS011;6686;51.292;4.166;2023-01-29T09:50:47;25.97;;;18.70;;
13238;SDS011;6686;51.292;4.166;2023-01-29T09:53:39;27.80;;;18.37;;
13238;SDS011;6686;51.292;4.166;2023-01-29T09:56:24;28.13;;;17.73;;
13238;SDS011;6686;51.292;4.166;2023-01-29T09:59:11;26.67;;;17.53;;
13238;SDS011;6686;51.292;4.166;2023-01-29T10:02:03;31.40;;;18.53;;
13238;SDS011;6686;51.292;4.166;2023-01-29T10:10:48;29.80;;;19.60;;
13238;SDS011;6686;51.292;4.166;2023-01-29T10:16:48;30.27;;;18.87;;
13238;SDS011;6686;51.292;4.166;2023-01-29T10:19:38;32.07;;;19.37;;
13238;SDS011;6686;51.292;4.166;2023-01-29T10:25:13;26.70;;;19.47;;
13238;SDS011;6686;51.292;4.166;2023-01-29T10:27:58;29.63;;;20.00;;
13238;SDS011;6686;51.292;4.166;2023-01-29T10:30:46;28.47;;;18.93;;
13238;SDS011;6686;51.292;4.166;2023-01-29T10:33:40;30.27;;;19.00;;
13238;SDS011;6686;51.292;4.166;2023-01-29T10:36:26;27.30;;;18.67;;
13238;SDS011;6686;51.292;4.166;2023-01-29T10:39:14;28.50;;;19.20;;
13238;SDS011;6686;51.292;4.166;2023-01-29T10:51:47;29.53;;;20.23;;
13238;SDS011;6686;51.292;4.166;2023-01-29T10:54:32;25.63;;;18.40;;
13238;SDS011;6686;51.292;4.166;2023-01-29T11:00:09;28.30;;;19.17;;
13238;SDS011;6686;51.292;4.166;2023-01-29T11:06:18;27.15;;;22.08;;
13238;SDS011;6686;51.292;4.166;2023-01-29T11:09:31;28.70;;;19.50;;
13238;SDS011;6686;51.292;4.166;2023-01-29T11:15:02;26.93;;;21.50;;
13238;SDS011;6686;51.292;4.166;2023-01-29T11:18:06;28.23;;;19.07;;
13238;SDS011;6686;51.292;4.166;2023-01-29T11:21:03;24.20;;;18.97;;
13238;SDS011;6686;51.292;4.166;2023-01-29T11:23:45;23.50;;;17.20;;
13238;SDS011;6686;51.292;4.166;2023-01-29T11:26:32;27.50;;;21.70;;
13238;SDS011;6686;51.292;4.166;2023-01-29T11:29:37;26.97;;;18.83;;
13238;SDS011;6686;51.292;4.166;2023-01-29T11:32:25;23.60;;;17.43;;
13238;SDS011;6686;51.292;4.166;2023-01-29T11:38:34;27.83;;;19.07;;
13238;SDS011;6686;51.292;4.166;2023-01-29T11:40:51;27.37;;;18.60;;
13238;SDS011;6686;51.292;4.166;2023-01-29T11:43:38;33.10;;;20.53;;
13238;SDS011;6686;51.292;4.166;2023-01-29T11:46:24;24.13;;;17.20;;
13238;SDS011;6686;51.292;4.166;2023-01-29T11:49:14;24.33;;;18.10;;
13238;SDS011;6686;51.292;4.166;2023-01-29T11:51:56;26.00;;;18.20;;
13238;SDS011;6686;51.292;4.166;2023-01-29T11:54:52;26.37;;;20.30;;
13238;SDS011;6686;51.292;4.166;2023-01-29T11:57:40;25.17;;;17.53;;
13238;SDS011;6686;51.292;4.166;2023-01-29T12:00:27;24.73;;;16.83;;
13238;SDS011;6686;51.292;4.166;2023-01-29T12:06:01;24.20;;;18.55;;
13238;SDS011;6686;51.292;4.166;2023-01-29T12:08:44;21.80;;;17.10;;
13238;SDS011;6686;51.292;4.166;2023-01-29T12:11:30;21.83;;;16.00;;
13238;SDS011;6686;51.292;4.166;2023-01-29T12:14:29;22.33;;;16.53;;
13238;SDS011;6686;51.292;4.166;2023-01-29T12:20:01;22.35;;;18.15;;
13238;SDS011;6686;51.292;4.166;2023-01-29T12:22:56;22.15;;;19.10;;
13238;SDS011;6686;51.292;4.166;2023-01-29T12:25:45;20.87;;;16.00;;
13238;SDS011;6686;51.292;4.166;2023-01-29T12:34:44;20.33;;;15.97;;
13238;SDS011;6686;51.292;4.166;2023-01-29T12:40:39;22.33;;;15.50;;
13238;SDS011;6686;51.292;4.166;2023-01-29T12:43:43;19.87;;;15.33;;
13238;SDS011;6686;51.292;4.166;2023-01-29T12:46:43;23.03;;;15.60;;
13238;SDS011;6686;51.292;4.166;2023-01-29T12:49:28;24.67;;;16.13;;
13238;SDS011;6686;51.292;4.166;2023-01-29T12:52:17;21.37;;;14.63;;
13238;SDS011;6686;51.292;4.166;2023-01-29T12:55:18;20.17;;;15.27;;
13238;SDS011;6686;51.292;4.166;2023-01-29T12:58:08;19.60;;;14.23;;
13238;SDS011;6686;51.292;4.166;2023-01-29T13:00:50;19.77;;;15.10;;
13238;SDS011;6686;51.292;4.166;2023-01-29T13:04:02;20.53;;;14.53;;
13238;SDS011;6686;51.292;4.166;2023-01-29T13:06:44;19.67;;;15.13;;
13238;SDS011;6686;51.292;4.166;2023-01-29T13:09:14;19.77;;;14.27;;
13238;SDS011;6686;51.292;4.166;2023-01-29T13:12:02;21.13;;;14.10;;
13238;SDS011;6686;51.292;4.166;2023-01-29T13:14:51;20.77;;;14.97;;
13238;SDS011;6686;51.292;4.166;2023-01-29T13:17:39;20.30;;;15.33;;
13238;SDS011;6686;51.292;4.166;2023-01-29T13:20:29;21.27;;;15.57;;
13238;SDS011;6686;51.292;4.166;2023-01-29T13:23:17;20.60;;;15.40;;
13238;SDS011;6686;51.292;4.166;2023-01-29T13:26:00;22.97;;;15.10;;
13238;SDS011;6686;51.292;4.166;2023-01-29T13:28:46;21.70;;;14.40;;
13238;SDS011;6686;51.292;4.166;2023-01-29T13:31:36;18.83;;;13.73;;
13238;SDS011;6686;51.292;4.166;2023-01-29T13:34:24;25.23;;;17.37;;
13238;SDS011;6686;51.292;4.166;2023-01-29T13:37:11;22.17;;;14.90;;
13238;SDS011;6686;51.292;4.166;2023-01-29T13:39:56;18.93;;;13.77;;
13238;SDS011;6686;51.292;4.166;2023-01-29T13:42:46;22.03;;;14.90;;
13238;SDS011;6686;51.292;4.166;2023-01-29T13:48:20;24.33;;;17.42;;
13238;SDS011;6686;51.292;4.166;2023-01-29T13:51:02;18.57;;;14.23;;
13238;SDS011;6686;51.292;4.166;2023-01-29T13:53:53;19.40;;;13.63;;
13238;SDS011;6686;51.292;4.166;2023-01-29T13:59:48;23.40;;;16.67;;
13238;SDS011;6686;51.292;4.166;2023-01-29T14:02:33;23.00;;;15.57;;
13238;SDS011;6686;51.292;4.166;2023-01-29T14:14:02;19.57;;;14.73;;
13238;SDS011;6686;51.292;4.166;2023-01-29T14:16:48;21.83;;;15.97;;
13238;SDS011;6686;51.292;4.166;2023-01-29T14:19:34;23.63;;;14.60;;
13238;SDS011;6686;51.292;4.166;2023-01-29T14:22:21;22.95;;;16.87;;
13238;SDS011;6686;51.292;4.166;2023-01-29T14:25:15;21.23;;;14.77;;
13238;SDS011;6686;51.292;4.166;2023-01-29T14:27:56;23.20;;;17.57;;
13238;SDS011;6686;51.292;4.166;2023-01-29T14:30:44;23.37;;;14.80;;
13238;SDS011;6686;51.292;4.166;2023-01-29T14:33:34;19.77;;;14.70;;
13238;SDS011;6686;51.292;4.166;2023-01-29T14:36:19;21.17;;;15.43;;
13238;SDS011;6686;51.292;4.166;2023-01-29T14:39:05;24.70;;;15.37;;
13238;SDS011;6686;51.292;4.166;2023-01-29T14:41:51;22.73;;;15.70;;
13238;SDS011;6686;51.292;4.166;2023-01-29T14:53:18;23.33;;;15.60;;
13238;SDS011;6686;51.292;4.166;2023-01-29T14:59:10;24.87;;;15.70;;
13238;SDS011;6686;51.292;4.166;2023-01-29T15:01:59;21.60;;;15.13;;
13238;SDS011;6686;51.292;4.166;2023-01-29T15:04:45;22.20;;;15.10;;
13238;SDS011;6686;51.292;4.166;2023-01-29T15:07:43;21.57;;;16.03;;
13238;SDS011;6686;51.292;4.166;2023-01-29T15:10:41;24.60;;;18.65;;
13238;SDS011;6686;51.292;4.166;2023-01-29T15:13:25;25.10;;;16.53;;
13238;SDS011;6686;51.292;4.166;2023-01-29T15:16:19;27.50;;;16.27;;
13238;SDS011;6686;51.292;4.166;2023-01-29T15:19:11;22.20;;;15.83;;
13238;SDS011;6686;51.292;4.166;2023-01-29T15:22:06;23.40;;;18.75;;
13238;SDS011;6686;51.292;4.166;2023-01-29T15:25:06;26.00;;;17.00;;
13238;SDS011;6686;51.292;4.166;2023-01-29T15:27:48;26.33;;;16.13;;
13238;SDS011;6686;51.292;4.166;2023-01-29T15:30:34;24.20;;;15.57;;
13238;SDS011;6686;51.292;4.166;2023-01-29T15:33:20;27.10;;;16.63;;
13238;SDS011;6686;51.292;4.166;2023-01-29T15:36:06;26.00;;;16.97;;
13238;SDS011;6686;51.292;4.166;2023-01-29T15:42:10;25.47;;;17.77;;
13238;SDS011;6686;51.292;4.166;2023-01-29T15:44:57;24.23;;;17.30;;
13238;SDS011;6686;51.292;4.166;2023-01-29T15:47:43;28.10;;;17.73;;
13238;SDS011;6686;51.292;4.166;2023-01-29T15:50:29;24.43;;;17.00;;
13238;SDS011;6686;51.292;4.166;2023-01-29T15:53:18;27.37;;;17.77;;
13238;SDS011;6686;51.292;4.166;2023-01-29T15:56:06;27.67;;;17.40;;
13238;SDS011;6686;51.292;4.166;2023-01-29T15:58:49;26.80;;;18.03;;
13238;SDS011;6686;51.292;4.166;2023-01-29T16:01:35;24.73;;;16.77;;
13238;SDS011;6686;51.292;4.166;2023-01-29T16:04:25;23.30;;;16.57;;
13238;SDS011;6686;51.292;4.166;2023-01-29T16:07:13;28.17;;;21.33;;
13238;SDS011;6686;51.292;4.166;2023-01-29T16:09:58;25.77;;;18.37;;
13238;SDS011;6686;51.292;4.166;2023-01-29T16:12:44;24.07;;;18.03;;
13238;SDS011;6686;51.292;4.166;2023-01-29T16:15:52;27.10;;;18.47;;
13238;SDS011;6686;51.292;4.166;2023-01-29T16:18:19;28.00;;;18.20;;
13238;SDS011;6686;51.292;4.166;2023-01-29T16:21:06;26.47;;;18.20;;
13238;SDS011;6686;51.292;4.166;2023-01-29T16:23:53;26.60;;;18.20;;
13238;SDS011;6686;51.292;4.166;2023-01-29T16:26:42;24.63;;;16.50;;
13238;SDS011;6686;51.292;4.166;2023-01-29T16:29:27;26.17;;;18.10;;
13238;SDS011;6686;51.292;4.166;2023-01-29T16:32:09;23.47;;;16.73;;
13238;SDS011;6686;51.292;4.166;2023-01-29T16:34:55;26.67;;;17.43;;
13238;SDS011;6686;51.292;4.166;2023-01-29T16:37:40;25.23;;;17.03;;
13238;SDS011;6686;51.292;4.166;2023-01-29T16:40:28;27.33;;;18.37;;
13238;SDS011;6686;51.292;4.166;2023-01-29T16:46:04;25.67;;;18.10;;
13238;SDS011;6686;51.292;4.166;2023-01-29T16:48:49;26.67;;;18.37;;
13238;SDS011;6686;51.292;4.166;2023-01-29T16:51:36;29.50;;;19.53;;
13238;SDS011;6686;51.292;4.166;2023-01-29T16:54:24;26.20;;;18.50;;
13238;SDS011;6686;51.292;4.166;2023-01-29T16:57:11;29.13;;;18.87;;
13238;SDS011;6686;51.292;4.166;2023-01-29T16:59:56;25.03;;;18.03;;
13238;SDS011;6686;51.292;4.166;2023-01-29T17:02:41;24.60;;;16.97;;
13238;SDS011;6686;51.292;4.166;2023-01-29T17:05:32;28.17;;;19.20;;
13238;SDS011;6686;51.292;4.166;2023-01-29T17:08:15;23.57;;;17.27;;
13238;SDS011;6686;51.292;4.166;2023-01-29T17:11:02;24.90;;;17.67;;
13238;SDS011;6686;51.292;4.166;2023-01-29T17:13:48;25.17;;;17.17;;
13238;SDS011;6686;51.292;4.166;2023-01-29T17:16:35;26.50;;;18.03;;
13238;SDS011;6686;51.292;4.166;2023-01-29T17:19:20;25.17;;;17.60;;
13238;SDS011;6686;51.292;4.166;2023-01-29T17:22:06;25.33;;;18.20;;
13238;SDS011;6686;51.292;4.166;2023-01-29T17:24:52;27.70;;;17.70;;
13238;SDS011;6686;51.292;4.166;2023-01-29T17:27:39;25.47;;;17.27;;
13238;SDS011;6686;51.292;4.166;2023-01-29T17:30:24;27.03;;;17.97;;
13238;SDS011;6686;51.292;4.166;2023-01-29T17:33:17;28.92;;;22.08;;
13238;SDS011;6686;51.292;4.166;2023-01-29T17:36:01;28.97;;;19.80;;
13238;SDS011;6686;51.292;4.166;2023-01-29T17:38:47;26.67;;;18.97;;
13238;SDS011;6686;51.292;4.166;2023-01-29T17:41:34;27.50;;;17.93;;
13238;SDS011;6686;51.292;4.166;2023-01-29T17:44:20;26.70;;;18.07;;
13238;SDS011;6686;51.292;4.166;2023-01-29T17:47:06;26.33;;;18.50;;
13238;SDS011;6686;51.292;4.166;2023-01-29T17:49:51;27.80;;;18.20;;
13238;SDS011;6686;51.292;4.166;2023-01-29T17:52:37;24.43;;;17.03;;
13238;SDS011;6686;51.292;4.166;2023-01-29T17:55:24;27.30;;;17.97;;
13238;SDS011;6686;51.292;4.166;2023-01-29T17:58:20;28.43;;;18.07;;
13238;SDS011;6686;51.292;4.166;2023-01-29T18:01:05;26.23;;;17.87;;
13238;SDS011;6686;51.292;4.166;2023-01-29T18:03:50;29.47;;;18.23;;
13238;SDS011;6686;51.292;4.166;2023-01-29T18:06:37;27.90;;;21.25;;
13238;SDS011;6686;51.292;4.166;2023-01-29T18:09:22;31.90;;;19.00;;
13238;SDS011;6686;51.292;4.166;2023-01-29T18:12:09;26.67;;;18.67;;
13238;SDS011;6686;51.292;4.166;2023-01-29T18:14:55;26.13;;;17.80;;
13238;SDS011;6686;51.292;4.166;2023-01-29T18:17:40;31.07;;;19.67;;
13238;SDS011;6686;51.292;4.166;2023-01-29T18:20:26;29.57;;;19.57;;
13238;SDS011;6686;51.292;4.166;2023-01-29T18:23:13;26.17;;;17.77;;
13238;SDS011;6686;51.292;4.166;2023-01-29T18:25:59;28.77;;;19.10;;
13238;SDS011;6686;51.292;4.166;2023-01-29T18:28:45;27.33;;;19.47;;
13238;SDS011;6686;51.292;4.166;2023-01-29T18:31:30;29.20;;;19.20;;
13238;SDS011;6686;51.292;4.166;2023-01-29T18:34:16;28.70;;;20.13;;
13238;SDS011;6686;51.292;4.166;2023-01-29T18:37:02;31.77;;;19.43;;
13238;SDS011;6686;51.292;4.166;2023-01-29T18:39:49;27.40;;;19.43;;
13238;SDS011;6686;51.292;4.166;2023-01-29T18:42:34;28.67;;;19.20;;
13238;SDS011;6686;51.292;4.166;2023-01-29T18:45:20;29.67;;;19.67;;
13238;SDS011;6686;51.292;4.166;2023-01-29T18:48:06;28.47;;;18.87;;
13238;SDS011;6686;51.292;4.166;2023-01-29T18:50:52;32.55;;;23.70;;
13238;SDS011;6686;51.292;4.166;2023-01-29T18:53:38;36.07;;;21.63;;
13238;SDS011;6686;51.292;4.166;2023-01-29T18:56:24;31.23;;;21.13;;
13238;SDS011;6686;51.292;4.166;2023-01-29T18:59:10;31.30;;;20.87;;